sensor_id;sensor_type;location;lat;lon;timestamp;P1;durP1;ratioP1;P2;durP2;ratioP2
69542;SDS011;56762;49.494;11.768;2023-03-01T00:01:15;19.87;;;7.00;;
69542;SDS011;56762;49.494;11.768;2023-03-01T00:03:45;17.30;;;6.95;;
69542;SDS011;56762;49.494;11.768;2023-03-01T00:06:13;17.70;;;6.80;;
69542;SDS011;56762;49.494;11.768;2023-03-01T00:08:43;18.85;;;6.72;;
69542;SDS011;56762;49.494;11.768;2023-03-01T00:11:12;19.35;;;7.35;;
69542;SDS011;56762;49.494;11.768;2023-03-01T00:13:43;17.77;;;6.80;;
69542;SDS011;56762;49.494;11.768;2023-03-01T00:16:12;16.20;;;7.43;;
69542;SDS011;56762;49.494;11.768;2023-03-01T00:18:42;18.23;;;7.00;;
69542;SDS011;56762;49.494;11.768;2023-03-01T00:21:10;20.63;;;7.20;;
69542;SDS011;56762;49.494;11.768;2023-03-01T00:23:39;21.92;;;7.85;;
69542;SDS011;56762;49.494;11.768;2023-03-01T00:26:09;18.90;;;7.03;;
69542;SDS011;56762;49.494;11.768;2023-03-01T00:28:39;16.70;;;7.00;;
69542;SDS011;56762;49.494;11.768;2023-03-01T00:31:07;18.23;;;6.95;;
69542;SDS011;56762;49.494;11.768;2023-03-01T00:33:36;21.13;;;7.65;;
69542;SDS011;56762;49.494;11.768;2023-03-01T00:36:04;16.48;;;7.40;;
69542;SDS011;56762;49.494;11.768;2023-03-01T00:38:34;18.67;;;7.33;;
69542;SDS011;56762;49.494;11.768;2023-03-01T00:41:03;15.48;;;7.28;;
69542;SDS011;56762;49.494;11.768;2023-03-01T00:43:33;16.70;;;8.20;;
69542;SDS011;56762;49.494;11.768;2023-03-01T00:46:03;21.33;;;7.13;;
69542;SDS011;56762;49.494;11.768;2023-03-01T00:48:32;16.80;;;7.35;;
69542;SDS011;56762;49.494;11.768;2023-03-01T00:51:03;16.17;;;7.10;;
69542;SDS011;56762;49.494;11.768;2023-03-01T00:53:32;18.33;;;7.10;;
69542;SDS011;56762;49.494;11.768;2023-03-01T00:56:00;15.55;;;6.60;;
69542;SDS011;56762;49.494;11.768;2023-03-01T00:58:29;16.92;;;6.93;;
69542;SDS011;56762;49.494;11.768;2023-03-01T01:00:58;17.00;;;7.00;;
69542;SDS011;56762;49.494;11.768;2023-03-01T01:03:27;18.73;;;6.90;;
69542;SDS011;56762;49.494;11.768;2023-03-01T01:05:55;19.27;;;7.75;;
69542;SDS011;56762;49.494;11.768;2023-03-01T01:08:23;17.23;;;7.57;;
69542;SDS011;56762;49.494;11.768;2023-03-01T01:10:51;15.70;;;7.65;;
69542;SDS011;56762;49.494;11.768;2023-03-01T01:13:19;20.45;;;7.43;;
69542;SDS011;56762;49.494;11.768;2023-03-01T01:15:47;17.47;;;7.43;;
69542;SDS011;56762;49.494;11.768;2023-03-01T01:18:17;16.55;;;7.38;;
69542;SDS011;56762;49.494;11.768;2023-03-01T01:20:45;15.00;;;7.38;;
69542;SDS011;56762;49.494;11.768;2023-03-01T01:23:12;21.27;;;7.93;;
69542;SDS011;56762;49.494;11.768;2023-03-01T01:25:40;19.42;;;6.72;;
69542;SDS011;56762;49.494;11.768;2023-03-01T01:28:09;19.77;;;7.37;;
69542;SDS011;56762;49.494;11.768;2023-03-01T01:30:36;16.55;;;7.53;;
69542;SDS011;56762;49.494;11.768;2023-03-01T01:33:04;19.52;;;7.25;;
69542;SDS011;56762;49.494;11.768;2023-03-01T01:35:33;17.75;;;7.03;;
69542;SDS011;56762;49.494;11.768;2023-03-01T01:38:01;18.00;;;7.43;;
69542;SDS011;56762;49.494;11.768;2023-03-01T01:40:29;18.37;;;7.87;;
69542;SDS011;56762;49.494;11.768;2023-03-01T01:42:57;18.83;;;6.82;;
69542;SDS011;56762;49.494;11.768;2023-03-01T01:45:27;17.40;;;7.85;;
69542;SDS011;56762;49.494;11.768;2023-03-01T01:47:58;18.02;;;7.85;;
69542;SDS011;56762;49.494;11.768;2023-03-01T01:50:30;20.20;;;7.78;;
69542;SDS011;56762;49.494;11.768;2023-03-01T01:53:07;21.03;;;7.67;;
69542;SDS011;56762;49.494;11.768;2023-03-01T01:55:39;16.50;;;7.53;;
69542;SDS011;56762;49.494;11.768;2023-03-01T01:58:10;21.05;;;7.20;;
69542;SDS011;56762;49.494;11.768;2023-03-01T02:00:40;20.15;;;8.20;;
69542;SDS011;56762;49.494;11.768;2023-03-01T02:03:10;18.83;;;7.57;;
69542;SDS011;56762;49.494;11.768;2023-03-01T02:05:42;15.70;;;7.30;;
69542;SDS011;56762;49.494;11.768;2023-03-01T02:08:23;17.98;;;7.75;;
69542;SDS011;56762;49.494;11.768;2023-03-01T02:10:53;20.00;;;7.30;;
69542;SDS011;56762;49.494;11.768;2023-03-01T02:13:23;19.40;;;7.07;;
69542;SDS011;56762;49.494;11.768;2023-03-01T02:15:51;16.23;;;7.00;;
69542;SDS011;56762;49.494;11.768;2023-03-01T02:18:20;19.10;;;6.70;;
69542;SDS011;56762;49.494;11.768;2023-03-01T02:20:54;14.77;;;6.82;;
69542;SDS011;56762;49.494;11.768;2023-03-01T02:23:32;18.25;;;7.15;;
69542;SDS011;56762;49.494;11.768;2023-03-01T02:26:02;19.80;;;8.25;;
69542;SDS011;56762;49.494;11.768;2023-03-01T02:28:35;18.15;;;7.97;;
69542;SDS011;56762;49.494;11.768;2023-03-01T02:31:04;14.77;;;6.53;;
69542;SDS011;56762;49.494;11.768;2023-03-01T02:33:51;16.88;;;7.53;;
69542;SDS011;56762;49.494;11.768;2023-03-01T02:36:22;19.00;;;7.50;;
69542;SDS011;56762;49.494;11.768;2023-03-01T02:38:53;17.75;;;7.32;;
69542;SDS011;56762;49.494;11.768;2023-03-01T02:41:26;15.38;;;7.22;;
69542;SDS011;56762;49.494;11.768;2023-03-01T02:43:59;13.43;;;6.47;;
69542;SDS011;56762;49.494;11.768;2023-03-01T02:46:27;17.50;;;7.32;;
69542;SDS011;56762;49.494;11.768;2023-03-01T02:48:57;15.63;;;7.00;;
69542;SDS011;56762;49.494;11.768;2023-03-01T02:51:31;17.38;;;7.63;;
69542;SDS011;56762;49.494;11.768;2023-03-01T02:54:12;18.60;;;7.53;;
69542;SDS011;56762;49.494;11.768;2023-03-01T02:56:45;16.47;;;7.23;;
69542;SDS011;56762;49.494;11.768;2023-03-01T02:59:16;15.93;;;6.75;;
69542;SDS011;56762;49.494;11.768;2023-03-01T03:01:47;19.42;;;7.45;;
69542;SDS011;56762;49.494;11.768;2023-03-01T03:04:16;18.13;;;7.63;;
69542;SDS011;56762;49.494;11.768;2023-03-01T03:06:45;15.52;;;6.43;;
69542;SDS011;56762;49.494;11.768;2023-03-01T03:09:13;17.60;;;7.33;;
69542;SDS011;56762;49.494;11.768;2023-03-01T03:11:42;16.10;;;6.78;;
69542;SDS011;56762;49.494;11.768;2023-03-01T03:14:11;18.40;;;7.13;;
69542;SDS011;56762;49.494;11.768;2023-03-01T03:16:43;16.38;;;6.85;;
69542;SDS011;56762;49.494;11.768;2023-03-01T03:19:12;16.20;;;7.07;;
69542;SDS011;56762;49.494;11.768;2023-03-01T03:21:40;22.03;;;7.37;;
69542;SDS011;56762;49.494;11.768;2023-03-01T03:24:08;18.10;;;7.38;;
69542;SDS011;56762;49.494;11.768;2023-03-01T03:26:36;16.98;;;7.22;;
69542;SDS011;56762;49.494;11.768;2023-03-01T03:29:04;17.55;;;7.05;;
69542;SDS011;56762;49.494;11.768;2023-03-01T03:31:32;18.50;;;7.30;;
69542;SDS011;56762;49.494;11.768;2023-03-01T03:34:02;17.63;;;7.30;;
69542;SDS011;56762;49.494;11.768;2023-03-01T03:36:30;18.10;;;7.50;;
69542;SDS011;56762;49.494;11.768;2023-03-01T03:38:58;16.98;;;7.28;;
69542;SDS011;56762;49.494;11.768;2023-03-01T03:41:26;16.05;;;7.20;;
69542;SDS011;56762;49.494;11.768;2023-03-01T03:43:54;20.80;;;7.88;;
69542;SDS011;56762;49.494;11.768;2023-03-01T03:46:22;21.20;;;8.17;;
69542;SDS011;56762;49.494;11.768;2023-03-01T03:48:50;18.90;;;7.80;;
69542;SDS011;56762;49.494;11.768;2023-03-01T03:51:19;19.45;;;7.22;;
69542;SDS011;56762;49.494;11.768;2023-03-01T03:53:48;16.10;;;7.55;;
69542;SDS011;56762;49.494;11.768;2023-03-01T03:56:16;19.27;;;7.13;;
69542;SDS011;56762;49.494;11.768;2023-03-01T03:58:44;18.60;;;6.93;;
69542;SDS011;56762;49.494;11.768;2023-03-01T04:01:12;18.52;;;7.22;;
69542;SDS011;56762;49.494;11.768;2023-03-01T04:03:40;19.65;;;7.38;;
69542;SDS011;56762;49.494;11.768;2023-03-01T04:06:13;16.90;;;7.57;;
69542;SDS011;56762;49.494;11.768;2023-03-01T04:08:43;17.42;;;7.35;;
69542;SDS011;56762;49.494;11.768;2023-03-01T04:11:11;20.63;;;7.70;;
69542;SDS011;56762;49.494;11.768;2023-03-01T04:13:54;18.80;;;7.45;;
69542;SDS011;56762;49.494;11.768;2023-03-01T04:16:23;19.33;;;7.47;;
69542;SDS011;56762;49.494;11.768;2023-03-01T04:18:52;18.70;;;7.00;;
69542;SDS011;56762;49.494;11.768;2023-03-01T04:21:21;16.05;;;6.90;;
69542;SDS011;56762;49.494;11.768;2023-03-01T04:23:50;18.27;;;7.37;;
69542;SDS011;56762;49.494;11.768;2023-03-01T04:26:19;19.52;;;7.18;;
69542;SDS011;56762;49.494;11.768;2023-03-01T04:28:47;21.13;;;9.07;;
69542;SDS011;56762;49.494;11.768;2023-03-01T04:31:17;19.92;;;7.88;;
69542;SDS011;56762;49.494;11.768;2023-03-01T04:33:48;16.10;;;7.20;;
69542;SDS011;56762;49.494;11.768;2023-03-01T04:36:19;17.47;;;7.27;;
69542;SDS011;56762;49.494;11.768;2023-03-01T04:38:50;15.10;;;6.93;;
69542;SDS011;56762;49.494;11.768;2023-03-01T04:41:19;15.75;;;6.85;;
69542;SDS011;56762;49.494;11.768;2023-03-01T04:43:48;16.67;;;7.15;;
69542;SDS011;56762;49.494;11.768;2023-03-01T04:46:17;15.88;;;7.65;;
69542;SDS011;56762;49.494;11.768;2023-03-01T04:48:46;19.90;;;8.37;;
69542;SDS011;56762;49.494;11.768;2023-03-01T04:51:15;16.17;;;7.15;;
69542;SDS011;56762;49.494;11.768;2023-03-01T04:53:44;15.85;;;7.05;;
69542;SDS011;56762;49.494;11.768;2023-03-01T04:56:14;18.85;;;7.70;;
69542;SDS011;56762;49.494;11.768;2023-03-01T04:58:44;17.92;;;6.72;;
69542;SDS011;56762;49.494;11.768;2023-03-01T05:01:14;16.40;;;6.83;;
69542;SDS011;56762;49.494;11.768;2023-03-01T05:03:43;18.05;;;7.55;;
69542;SDS011;56762;49.494;11.768;2023-03-01T05:06:11;21.27;;;7.93;;
69542;SDS011;56762;49.494;11.768;2023-03-01T05:08:40;18.25;;;7.13;;
69542;SDS011;56762;49.494;11.768;2023-03-01T05:11:09;22.10;;;7.30;;
69542;SDS011;56762;49.494;11.768;2023-03-01T05:13:40;16.10;;;6.97;;
69542;SDS011;56762;49.494;11.768;2023-03-01T05:16:08;16.85;;;7.90;;
69542;SDS011;56762;49.494;11.768;2023-03-01T05:18:38;16.38;;;7.25;;
69542;SDS011;56762;49.494;11.768;2023-03-01T05:21:08;20.08;;;6.72;;
69542;SDS011;56762;49.494;11.768;2023-03-01T05:23:38;19.80;;;8.05;;
69542;SDS011;56762;49.494;11.768;2023-03-01T05:26:07;19.77;;;7.43;;
69542;SDS011;56762;49.494;11.768;2023-03-01T05:28:54;14.45;;;6.40;;
69542;SDS011;56762;49.494;11.768;2023-03-01T05:31:25;17.40;;;7.28;;
69542;SDS011;56762;49.494;11.768;2023-03-01T05:33:54;15.88;;;6.82;;
69542;SDS011;56762;49.494;11.768;2023-03-01T05:36:22;15.95;;;7.45;;
69542;SDS011;56762;49.494;11.768;2023-03-01T05:38:50;17.50;;;7.03;;
69542;SDS011;56762;49.494;11.768;2023-03-01T05:41:18;15.05;;;6.47;;
69542;SDS011;56762;49.494;11.768;2023-03-01T05:43:46;16.65;;;7.28;;
69542;SDS011;56762;49.494;11.768;2023-03-01T05:46:15;18.23;;;7.32;;
69542;SDS011;56762;49.494;11.768;2023-03-01T05:48:43;17.15;;;7.22;;
69542;SDS011;56762;49.494;11.768;2023-03-01T05:51:11;16.80;;;6.87;;
69542;SDS011;56762;49.494;11.768;2023-03-01T05:53:39;21.10;;;7.65;;
69542;SDS011;56762;49.494;11.768;2023-03-01T05:56:08;16.10;;;6.95;;
69542;SDS011;56762;49.494;11.768;2023-03-01T05:58:35;18.45;;;8.43;;
69542;SDS011;56762;49.494;11.768;2023-03-01T06:01:04;15.93;;;7.15;;
69542;SDS011;56762;49.494;11.768;2023-03-01T06:03:34;15.83;;;7.50;;
69542;SDS011;56762;49.494;11.768;2023-03-01T06:06:02;18.10;;;7.82;;
69542;SDS011;56762;49.494;11.768;2023-03-01T06:08:30;19.10;;;8.02;;
69542;SDS011;56762;49.494;11.768;2023-03-01T06:10:58;23.33;;;9.80;;
69542;SDS011;56762;49.494;11.768;2023-03-01T06:13:26;24.75;;;9.43;;
69542;SDS011;56762;49.494;11.768;2023-03-01T06:15:54;50.43;;;20.60;;
69542;SDS011;56762;49.494;11.768;2023-03-01T06:18:22;30.30;;;11.75;;
69542;SDS011;56762;49.494;11.768;2023-03-01T06:20:53;22.52;;;9.48;;
69542;SDS011;56762;49.494;11.768;2023-03-01T06:23:22;19.48;;;7.80;;
69542;SDS011;56762;49.494;11.768;2023-03-01T06:25:50;19.33;;;7.90;;
69542;SDS011;56762;49.494;11.768;2023-03-01T06:28:18;15.97;;;7.47;;
69542;SDS011;56762;49.494;11.768;2023-03-01T06:30:46;22.60;;;7.60;;
69542;SDS011;56762;49.494;11.768;2023-03-01T06:33:14;17.25;;;7.05;;
69542;SDS011;56762;49.494;11.768;2023-03-01T06:35:42;17.10;;;7.13;;
69542;SDS011;56762;49.494;11.768;2023-03-01T06:38:11;15.35;;;7.15;;
69542;SDS011;56762;49.494;11.768;2023-03-01T06:40:41;16.13;;;7.63;;
69542;SDS011;56762;49.494;11.768;2023-03-01T06:43:08;19.15;;;8.25;;
69542;SDS011;56762;49.494;11.768;2023-03-01T06:45:36;15.52;;;7.05;;
69542;SDS011;56762;49.494;11.768;2023-03-01T06:48:04;18.98;;;7.43;;
69542;SDS011;56762;49.494;11.768;2023-03-01T06:50:35;19.83;;;9.07;;
69542;SDS011;56762;49.494;11.768;2023-03-01T06:53:04;18.77;;;8.77;;
69542;SDS011;56762;49.494;11.768;2023-03-01T06:55:34;18.48;;;8.10;;
69542;SDS011;56762;49.494;11.768;2023-03-01T06:58:02;19.02;;;8.90;;
69542;SDS011;56762;49.494;11.768;2023-03-01T07:00:32;17.02;;;8.07;;
69542;SDS011;56762;49.494;11.768;2023-03-01T07:03:00;17.13;;;8.07;;
69542;SDS011;56762;49.494;11.768;2023-03-01T07:05:29;20.00;;;8.63;;
69542;SDS011;56762;49.494;11.768;2023-03-01T07:07:57;21.25;;;8.88;;
69542;SDS011;56762;49.494;11.768;2023-03-01T07:10:25;21.60;;;9.07;;
69542;SDS011;56762;49.494;11.768;2023-03-01T07:12:55;20.33;;;8.27;;
69542;SDS011;56762;49.494;11.768;2023-03-01T07:15:23;19.17;;;8.85;;
69542;SDS011;56762;49.494;11.768;2023-03-01T07:17:52;17.63;;;8.50;;
69542;SDS011;56762;49.494;11.768;2023-03-01T07:20:20;20.27;;;9.57;;
69542;SDS011;56762;49.494;11.768;2023-03-01T07:22:51;19.80;;;9.18;;
69542;SDS011;56762;49.494;11.768;2023-03-01T07:25:19;21.20;;;9.07;;
69542;SDS011;56762;49.494;11.768;2023-03-01T07:27:48;17.35;;;8.98;;
69542;SDS011;56762;49.494;11.768;2023-03-01T07:30:18;23.40;;;10.20;;
69542;SDS011;56762;49.494;11.768;2023-03-01T07:32:46;21.08;;;8.98;;
69542;SDS011;56762;49.494;11.768;2023-03-01T07:35:15;18.42;;;7.90;;
69542;SDS011;56762;49.494;11.768;2023-03-01T07:37:43;19.85;;;8.93;;
69542;SDS011;56762;49.494;11.768;2023-03-01T07:40:11;18.27;;;7.68;;
69542;SDS011;56762;49.494;11.768;2023-03-01T07:42:39;19.10;;;8.93;;
69542;SDS011;56762;49.494;11.768;2023-03-01T07:45:08;20.48;;;8.80;;
69542;SDS011;56762;49.494;11.768;2023-03-01T07:47:37;25.15;;;9.02;;
69542;SDS011;56762;49.494;11.768;2023-03-01T07:50:05;22.33;;;8.82;;
69542;SDS011;56762;49.494;11.768;2023-03-01T07:52:34;20.38;;;9.30;;
69542;SDS011;56762;49.494;11.768;2023-03-01T07:55:02;17.23;;;7.73;;
69542;SDS011;56762;49.494;11.768;2023-03-01T07:57:30;20.17;;;8.52;;
69542;SDS011;56762;49.494;11.768;2023-03-01T07:59:58;19.48;;;8.50;;
69542;SDS011;56762;49.494;11.768;2023-03-01T08:02:26;19.55;;;9.35;;
69542;SDS011;56762;49.494;11.768;2023-03-01T08:04:55;21.13;;;9.18;;
69542;SDS011;56762;49.494;11.768;2023-03-01T08:07:22;21.77;;;9.87;;
69542;SDS011;56762;49.494;11.768;2023-03-01T08:09:50;22.98;;;9.52;;
69542;SDS011;56762;49.494;11.768;2023-03-01T08:12:18;20.33;;;8.55;;
69542;SDS011;56762;49.494;11.768;2023-03-01T08:14:47;21.08;;;8.75;;
69542;SDS011;56762;49.494;11.768;2023-03-01T08:17:14;21.67;;;8.73;;
69542;SDS011;56762;49.494;11.768;2023-03-01T08:19:42;23.17;;;10.07;;
69542;SDS011;56762;49.494;11.768;2023-03-01T08:22:12;24.42;;;9.98;;
69542;SDS011;56762;49.494;11.768;2023-03-01T08:24:42;23.63;;;10.38;;
69542;SDS011;56762;49.494;11.768;2023-03-01T08:27:10;24.83;;;10.52;;
69542;SDS011;56762;49.494;11.768;2023-03-01T08:29:38;27.83;;;10.48;;
69542;SDS011;56762;49.494;11.768;2023-03-01T08:32:06;27.23;;;10.93;;
69542;SDS011;56762;49.494;11.768;2023-03-01T08:34:35;24.63;;;10.77;;
69542;SDS011;56762;49.494;11.768;2023-03-01T08:37:03;24.75;;;9.95;;
69542;SDS011;56762;49.494;11.768;2023-03-01T08:39:33;25.52;;;10.88;;
69542;SDS011;56762;49.494;11.768;2023-03-01T08:42:00;21.27;;;9.93;;
69542;SDS011;56762;49.494;11.768;2023-03-01T08:44:28;20.30;;;9.00;;
69542;SDS011;56762;49.494;11.768;2023-03-01T08:46:56;24.92;;;10.68;;
69542;SDS011;56762;49.494;11.768;2023-03-01T08:49:24;25.48;;;10.23;;
69542;SDS011;56762;49.494;11.768;2023-03-01T08:51:52;22.92;;;10.40;;
69542;SDS011;56762;49.494;11.768;2023-03-01T08:54:21;24.30;;;10.50;;
69542;SDS011;56762;49.494;11.768;2023-03-01T08:56:50;26.43;;;10.93;;
69542;SDS011;56762;49.494;11.768;2023-03-01T08:59:18;23.17;;;10.70;;
69542;SDS011;56762;49.494;11.768;2023-03-01T09:01:46;25.52;;;10.75;;
69542;SDS011;56762;49.494;11.768;2023-03-01T09:04:14;22.50;;;10.10;;
69542;SDS011;56762;49.494;11.768;2023-03-01T09:06:42;25.65;;;11.00;;
69542;SDS011;56762;49.494;11.768;2023-03-01T09:09:12;27.37;;;10.93;;
69542;SDS011;56762;49.494;11.768;2023-03-01T09:11:42;22.80;;;10.52;;
69542;SDS011;56762;49.494;11.768;2023-03-01T09:14:13;24.25;;;11.60;;
69542;SDS011;56762;49.494;11.768;2023-03-01T09:16:41;21.40;;;9.73;;
69542;SDS011;56762;49.494;11.768;2023-03-01T09:19:09;19.88;;;9.82;;
69542;SDS011;56762;49.494;11.768;2023-03-01T09:21:37;21.97;;;10.10;;
69542;SDS011;56762;49.494;11.768;2023-03-01T09:24:06;24.27;;;11.00;;
69542;SDS011;56762;49.494;11.768;2023-03-01T09:26:39;27.25;;;11.05;;
69542;SDS011;56762;49.494;11.768;2023-03-01T09:29:07;22.75;;;10.57;;
69542;SDS011;56762;49.494;11.768;2023-03-01T09:31:37;25.50;;;9.73;;
69542;SDS011;56762;49.494;11.768;2023-03-01T09:34:05;23.10;;;10.50;;
69542;SDS011;56762;49.494;11.768;2023-03-01T09:36:35;25.67;;;10.90;;
69542;SDS011;56762;49.494;11.768;2023-03-01T09:39:03;20.70;;;9.88;;
69542;SDS011;56762;49.494;11.768;2023-03-01T09:41:38;22.42;;;10.25;;
69542;SDS011;56762;49.494;11.768;2023-03-01T09:44:15;23.10;;;9.98;;
69542;SDS011;56762;49.494;11.768;2023-03-01T09:46:49;19.17;;;9.47;;
69542;SDS011;56762;49.494;11.768;2023-03-01T09:49:18;23.80;;;9.55;;
69542;SDS011;56762;49.494;11.768;2023-03-01T09:51:53;21.75;;;9.77;;
69542;SDS011;56762;49.494;11.768;2023-03-01T09:54:24;20.58;;;10.25;;
69542;SDS011;56762;49.494;11.768;2023-03-01T09:56:53;19.88;;;9.15;;
69542;SDS011;56762;49.494;11.768;2023-03-01T09:59:30;22.23;;;9.50;;
69542;SDS011;56762;49.494;11.768;2023-03-01T10:02:18;21.17;;;9.98;;
69542;SDS011;56762;49.494;11.768;2023-03-01T10:04:51;25.75;;;10.43;;
69542;SDS011;56762;49.494;11.768;2023-03-01T10:07:27;21.40;;;9.43;;
69542;SDS011;56762;49.494;11.768;2023-03-01T10:10:00;22.65;;;10.05;;
69542;SDS011;56762;49.494;11.768;2023-03-01T10:12:33;25.07;;;9.27;;
69542;SDS011;56762;49.494;11.768;2023-03-01T10:15:04;20.98;;;9.60;;
69542;SDS011;56762;49.494;11.768;2023-03-01T10:17:39;19.60;;;9.25;;
69542;SDS011;56762;49.494;11.768;2023-03-01T10:20:15;17.80;;;8.48;;
69542;SDS011;56762;49.494;11.768;2023-03-01T10:22:46;20.02;;;8.63;;
69542;SDS011;56762;49.494;11.768;2023-03-01T10:25:21;19.00;;;8.87;;
69542;SDS011;56762;49.494;11.768;2023-03-01T10:27:59;20.25;;;9.35;;
69542;SDS011;56762;49.494;11.768;2023-03-01T10:30:32;21.77;;;9.52;;
69542;SDS011;56762;49.494;11.768;2023-03-01T10:33:07;18.83;;;8.73;;
69542;SDS011;56762;49.494;11.768;2023-03-01T10:35:42;23.08;;;9.60;;
69542;SDS011;56762;49.494;11.768;2023-03-01T10:38:11;18.80;;;8.40;;
69542;SDS011;56762;49.494;11.768;2023-03-01T10:40:50;20.58;;;8.55;;
69542;SDS011;56762;49.494;11.768;2023-03-01T10:43:21;19.38;;;8.98;;
69542;SDS011;56762;49.494;11.768;2023-03-01T10:45:49;18.90;;;8.85;;
69542;SDS011;56762;49.494;11.768;2023-03-01T10:48:20;28.10;;;11.13;;
69542;SDS011;56762;49.494;11.768;2023-03-01T10:51:04;22.40;;;10.40;;
69542;SDS011;56762;49.494;11.768;2023-03-01T10:53:33;21.48;;;9.02;;
69542;SDS011;56762;49.494;11.768;2023-03-01T10:56:03;20.08;;;9.02;;
69542;SDS011;56762;49.494;11.768;2023-03-01T10:58:34;17.42;;;8.40;;
69542;SDS011;56762;49.494;11.768;2023-03-01T11:01:04;19.10;;;9.35;;
69542;SDS011;56762;49.494;11.768;2023-03-01T11:03:34;20.63;;;9.17;;
69542;SDS011;56762;49.494;11.768;2023-03-01T11:06:06;22.05;;;8.65;;
69542;SDS011;56762;49.494;11.768;2023-03-01T11:08:49;19.67;;;8.65;;
69542;SDS011;56762;49.494;11.768;2023-03-01T11:11:22;21.08;;;9.07;;
69542;SDS011;56762;49.494;11.768;2023-03-01T11:13:54;20.67;;;8.40;;
69542;SDS011;56762;49.494;11.768;2023-03-01T11:16:24;18.33;;;9.00;;
69542;SDS011;56762;49.494;11.768;2023-03-01T11:19:01;19.92;;;8.80;;
69542;SDS011;56762;49.494;11.768;2023-03-01T11:21:41;19.90;;;8.52;;
69542;SDS011;56762;49.494;11.768;2023-03-01T11:24:16;20.00;;;8.90;;
69542;SDS011;56762;49.494;11.768;2023-03-01T11:26:47;17.70;;;8.63;;
69542;SDS011;56762;49.494;11.768;2023-03-01T11:29:21;24.23;;;8.53;;
69542;SDS011;56762;49.494;11.768;2023-03-01T11:32:06;15.38;;;7.97;;
69542;SDS011;56762;49.494;11.768;2023-03-01T11:34:40;18.27;;;8.73;;
69542;SDS011;56762;49.494;11.768;2023-03-01T11:37:13;17.80;;;8.38;;
69542;SDS011;56762;49.494;11.768;2023-03-01T11:39:51;19.77;;;8.20;;
69542;SDS011;56762;49.494;11.768;2023-03-01T11:42:28;17.77;;;7.27;;
69542;SDS011;56762;49.494;11.768;2023-03-01T11:45:10;17.60;;;7.70;;
69542;SDS011;56762;49.494;11.768;2023-03-01T11:47:52;17.75;;;8.70;;
69542;SDS011;56762;49.494;11.768;2023-03-01T11:50:34;16.55;;;8.00;;
69542;SDS011;56762;49.494;11.768;2023-03-01T11:53:16;14.88;;;7.38;;
69542;SDS011;56762;49.494;11.768;2023-03-01T11:55:58;15.27;;;7.13;;
69542;SDS011;56762;49.494;11.768;2023-03-01T11:58:46;16.15;;;8.02;;
69542;SDS011;56762;49.494;11.768;2023-03-01T12:04:22;17.70;;;7.70;;
69542;SDS011;56762;49.494;11.768;2023-03-01T12:07:03;18.08;;;7.72;;
69542;SDS011;56762;49.494;11.768;2023-03-01T12:09:38;16.83;;;7.97;;
69542;SDS011;56762;49.494;11.768;2023-03-01T12:12:22;17.52;;;7.47;;
69542;SDS011;56762;49.494;11.768;2023-03-01T12:15:00;18.52;;;8.85;;
69542;SDS011;56762;49.494;11.768;2023-03-01T12:20:44;19.00;;;8.15;;
69542;SDS011;56762;49.494;11.768;2023-03-01T12:23:29;16.90;;;8.20;;
69542;SDS011;56762;49.494;11.768;2023-03-01T12:26:16;23.45;;;9.93;;
69542;SDS011;56762;49.494;11.768;2023-03-01T12:28:52;21.00;;;9.30;;
69542;SDS011;56762;49.494;11.768;2023-03-01T12:31:38;19.38;;;8.73;;
69542;SDS011;56762;49.494;11.768;2023-03-01T12:34:23;22.38;;;9.73;;
69542;SDS011;56762;49.494;11.768;2023-03-01T12:37:07;16.70;;;7.70;;
69542;SDS011;56762;49.494;11.768;2023-03-01T12:39:49;19.55;;;9.30;;
69542;SDS011;56762;49.494;11.768;2023-03-01T12:42:27;18.83;;;8.23;;
69542;SDS011;56762;49.494;11.768;2023-03-01T12:45:06;15.63;;;7.45;;
69542;SDS011;56762;49.494;11.768;2023-03-01T12:47:55;18.40;;;8.57;;
69542;SDS011;56762;49.494;11.768;2023-03-01T12:50:35;20.33;;;9.30;;
69542;SDS011;56762;49.494;11.768;2023-03-01T12:53:14;17.98;;;8.63;;
69542;SDS011;56762;49.494;11.768;2023-03-01T12:55:50;15.85;;;8.52;;
69542;SDS011;56762;49.494;11.768;2023-03-01T12:58:24;18.17;;;9.20;;
69542;SDS011;56762;49.494;11.768;2023-03-01T13:01:16;18.17;;;8.63;;
69542;SDS011;56762;49.494;11.768;2023-03-01T13:03:56;21.57;;;9.87;;
69542;SDS011;56762;49.494;11.768;2023-03-01T13:06:35;19.77;;;9.27;;
69542;SDS011;56762;49.494;11.768;2023-03-01T13:09:13;19.35;;;8.60;;
69542;SDS011;56762;49.494;11.768;2023-03-01T13:11:47;22.13;;;9.77;;
69542;SDS011;56762;49.494;11.768;2023-03-01T13:20:00;17.02;;;8.63;;
69542;SDS011;56762;49.494;11.768;2023-03-01T13:22:31;15.82;;;7.97;;
69542;SDS011;56762;49.494;11.768;2023-03-01T13:25:14;15.23;;;7.90;;
69542;SDS011;56762;49.494;11.768;2023-03-01T13:27:45;19.17;;;10.05;;
69542;SDS011;56762;49.494;11.768;2023-03-01T13:30:38;18.60;;;8.57;;
69542;SDS011;56762;49.494;11.768;2023-03-01T13:39:29;18.48;;;9.82;;
69542;SDS011;56762;49.494;11.768;2023-03-01T13:41:59;21.50;;;9.98;;
69542;SDS011;56762;49.494;11.768;2023-03-01T13:44:30;16.47;;;7.93;;
69542;SDS011;56762;49.494;11.768;2023-03-01T13:47:03;17.65;;;8.77;;
69542;SDS011;56762;49.494;11.768;2023-03-01T13:49:42;18.67;;;9.23;;
69542;SDS011;56762;49.494;11.768;2023-03-01T13:52:26;18.90;;;8.73;;
69542;SDS011;56762;49.494;11.768;2023-03-01T13:55:03;14.90;;;8.18;;
69542;SDS011;56762;49.494;11.768;2023-03-01T13:57:33;19.90;;;8.97;;
69542;SDS011;56762;49.494;11.768;2023-03-01T14:00:23;17.63;;;9.18;;
69542;SDS011;56762;49.494;11.768;2023-03-01T14:03:04;19.00;;;8.23;;
69542;SDS011;56762;49.494;11.768;2023-03-01T14:05:42;16.58;;;8.50;;
69542;SDS011;56762;49.494;11.768;2023-03-01T14:08:19;17.02;;;7.97;;
69542;SDS011;56762;49.494;11.768;2023-03-01T14:10:53;16.80;;;7.93;;
69542;SDS011;56762;49.494;11.768;2023-03-01T14:13:31;15.50;;;8.32;;
69542;SDS011;56762;49.494;11.768;2023-03-01T14:16:17;19.30;;;7.57;;
69542;SDS011;56762;49.494;11.768;2023-03-01T14:18:59;16.70;;;7.78;;
69542;SDS011;56762;49.494;11.768;2023-03-01T14:21:39;18.33;;;7.45;;
69542;SDS011;56762;49.494;11.768;2023-03-01T14:24:14;20.30;;;9.27;;
69542;SDS011;56762;49.494;11.768;2023-03-01T14:26:44;16.40;;;7.95;;
69542;SDS011;56762;49.494;11.768;2023-03-01T14:29:25;17.80;;;8.70;;
69542;SDS011;56762;49.494;11.768;2023-03-01T14:32:01;23.65;;;8.52;;
69542;SDS011;56762;49.494;11.768;2023-03-01T14:34:36;17.65;;;8.20;;
69542;SDS011;56762;49.494;11.768;2023-03-01T14:37:11;15.73;;;8.10;;
69542;SDS011;56762;49.494;11.768;2023-03-01T14:39:45;17.42;;;8.63;;
69542;SDS011;56762;49.494;11.768;2023-03-01T14:42:13;16.92;;;8.15;;
69542;SDS011;56762;49.494;11.768;2023-03-01T14:44:43;19.60;;;8.60;;
69542;SDS011;56762;49.494;11.768;2023-03-01T14:47:23;19.02;;;8.52;;
69542;SDS011;56762;49.494;11.768;2023-03-01T14:49:56;15.40;;;7.60;;
69542;SDS011;56762;49.494;11.768;2023-03-01T14:52:28;17.35;;;8.27;;
69542;SDS011;56762;49.494;11.768;2023-03-01T14:55:03;16.15;;;8.38;;
69542;SDS011;56762;49.494;11.768;2023-03-01T14:57:33;19.88;;;9.30;;
69542;SDS011;56762;49.494;11.768;2023-03-01T15:00:02;19.10;;;8.95;;
69542;SDS011;56762;49.494;11.768;2023-03-01T15:02:34;17.40;;;8.37;;
69542;SDS011;56762;49.494;11.768;2023-03-01T15:05:03;17.05;;;8.55;;